createdAt,value
2024-03-03T00:01:33.137Z,10.40
2024-03-03T00:04:01.883Z,10.77
2024-03-03T00:06:30.529Z,11.40
2024-03-03T00:08:59.130Z,11.70
2024-03-03T00:11:27.976Z,11.27
2024-03-03T00:13:56.651Z,11.90
2024-03-03T00:16:28.274Z,11.23
2024-03-03T00:18:57.736Z,11.37
2024-03-03T00:21:26.833Z,11.27
2024-03-03T00:23:55.391Z,12.37
2024-03-03T00:26:24.647Z,12.37
2024-03-03T00:28:53.635Z,12.17
2024-03-03T00:31:23.396Z,12.20
2024-03-03T00:33:53.745Z,11.73
2024-03-03T00:36:23.447Z,12.43
2024-03-03T00:38:52.220Z,11.80
2024-03-03T00:41:20.802Z,12.80
2024-03-03T00:43:49.533Z,10.43
2024-03-03T00:46:18.277Z,11.57
2024-03-03T00:48:46.962Z,12.07
2024-03-03T00:51:17.018Z,12.37
2024-03-03T00:53:45.674Z,11.27
2024-03-03T00:56:14.382Z,11.37
2024-03-03T00:58:43.111Z,12.37
2024-03-03T01:01:13.679Z,12.20
2024-03-03T01:03:42.387Z,13.07
2024-03-03T01:06:11.072Z,11.43
2024-03-03T01:08:41.076Z,12.40
2024-03-03T01:11:09.691Z,11.63
2024-03-03T01:13:38.363Z,11.73
2024-03-03T01:16:08.645Z,11.80
2024-03-03T01:18:37.392Z,12.23
2024-03-03T01:21:06.755Z,12.20
2024-03-03T01:23:36.245Z,11.43
2024-03-03T01:26:06.489Z,11.63
2024-03-03T01:28:35.129Z,12.37
2024-03-03T01:31:03.820Z,11.03
2024-03-03T01:33:32.553Z,11.70
2024-03-03T01:36:01.133Z,12.07
2024-03-03T01:38:30.008Z,12.53
2024-03-03T01:40:58.703Z,11.60
2024-03-03T01:43:28.802Z,11.60
2024-03-03T01:45:57.660Z,12.17
2024-03-03T01:48:26.893Z,12.37
2024-03-03T01:50:57.315Z,12.37
2024-03-03T01:53:26.761Z,11.53
2024-03-03T01:55:56.196Z,12.07
2024-03-03T01:58:24.991Z,13.00
2024-03-03T02:00:55.211Z,12.50
2024-03-03T02:03:23.966Z,12.53
2024-03-03T02:05:53.294Z,11.80
2024-03-03T02:08:22.416Z,12.57
2024-03-03T02:10:51.670Z,11.83
2024-03-03T02:13:20.390Z,11.63
2024-03-03T02:15:49.353Z,11.87
2024-03-03T02:18:19.333Z,11.70
2024-03-03T02:20:48.588Z,11.90
2024-03-03T02:23:18.799Z,12.93
2024-03-03T02:25:47.808Z,11.33
2024-03-03T02:28:17.404Z,11.13
2024-03-03T02:30:46.172Z,12.33
2024-03-03T02:33:15.349Z,12.13
2024-03-03T02:35:44.005Z,12.07
2024-03-03T02:38:12.769Z,12.17
2024-03-03T02:40:42.890Z,12.43
2024-03-03T02:43:11.633Z,11.87
2024-03-03T02:45:40.349Z,11.30
2024-03-03T02:48:09.927Z,11.10
2024-03-03T02:50:38.764Z,12.23
2024-03-03T02:53:07.594Z,12.17
2024-03-03T02:55:36.172Z,12.50
2024-03-03T02:58:06.932Z,11.87
2024-03-03T03:00:37.231Z,11.63
2024-03-03T03:03:06.430Z,11.77
2024-03-03T03:05:35.291Z,11.97
2024-03-03T03:08:04.000Z,11.10
2024-03-03T03:10:32.660Z,12.17
2024-03-03T03:13:01.630Z,11.53
2024-03-03T03:15:36.518Z,11.77
2024-03-03T03:18:06.412Z,11.83
2024-03-03T03:20:35.715Z,12.93
2024-03-03T03:23:04.455Z,11.77
2024-03-03T03:25:33.100Z,11.93
2024-03-03T03:28:01.768Z,11.77
2024-03-03T03:30:31.866Z,12.07
2024-03-03T03:33:00.544Z,12.87
2024-03-03T03:35:29.245Z,12.60
2024-03-03T03:37:57.843Z,11.77
2024-03-03T03:40:26.987Z,11.77
2024-03-03T03:42:55.697Z,12.17
2024-03-03T03:45:24.371Z,12.60
2024-03-03T03:47:54.359Z,12.27
2024-03-03T03:50:23.042Z,12.80
2024-03-03T03:52:51.650Z,11.50
2024-03-03T03:55:20.405Z,13.10
2024-03-03T03:57:49.052Z,12.03
2024-03-03T04:00:18.914Z,12.63
2024-03-03T04:02:48.698Z,12.27
2024-03-03T04:05:19.042Z,11.13
2024-03-03T04:07:47.787Z,11.50
2024-03-03T04:10:19.101Z,12.60
2024-03-03T04:12:47.995Z,12.37
2024-03-03T04:15:17.493Z,11.33
2024-03-03T04:17:46.226Z,11.83
2024-03-03T04:20:15.162Z,12.07
2024-03-03T04:22:45.174Z,11.37
2024-03-03T04:25:14.087Z,12.17
2024-03-03T04:27:43.130Z,11.77
2024-03-03T04:30:12.663Z,12.57
2024-03-03T04:32:41.491Z,11.73
2024-03-03T04:35:10.805Z,11.60
2024-03-03T04:37:39.487Z,11.97
2024-03-03T04:40:11.071Z,12.37
2024-03-03T04:42:40.133Z,12.40
2024-03-03T04:45:10.173Z,11.27
2024-03-03T04:47:40.223Z,12.47
2024-03-03T04:50:10.227Z,12.30
2024-03-03T04:52:38.924Z,11.53
2024-03-03T04:55:09.993Z,11.60
2024-03-03T04:57:38.670Z,12.40
2024-03-03T05:00:10.414Z,11.87
2024-03-03T05:02:39.584Z,11.80
2024-03-03T05:05:09.542Z,11.47
2024-03-03T05:07:38.251Z,11.73
2024-03-03T05:10:10.136Z,11.73
2024-03-03T05:12:39.220Z,11.50
2024-03-03T05:15:09.334Z,11.80
2024-03-03T05:17:38.078Z,12.10
2024-03-03T05:20:10.207Z,11.77
2024-03-03T05:22:39.310Z,11.40
2024-03-03T05:25:11.391Z,12.43
2024-03-03T05:27:40.145Z,12.20
2024-03-03T05:30:09.950Z,12.53
2024-03-03T05:32:38.567Z,12.10
2024-03-03T05:35:07.803Z,12.07
2024-03-03T05:37:36.633Z,11.70
2024-03-03T05:40:06.581Z,11.63
2024-03-03T05:42:36.990Z,12.03
2024-03-03T05:45:07.015Z,11.80
2024-03-03T05:47:35.716Z,12.57
2024-03-03T05:50:04.391Z,12.53
2024-03-03T05:52:33.065Z,12.63
2024-03-03T05:55:01.788Z,13.03
2024-03-03T05:57:30.445Z,12.30
2024-03-03T06:00:00.687Z,11.47
2024-03-03T06:02:29.333Z,12.50
2024-03-03T06:04:57.951Z,12.80
2024-03-03T06:07:26.766Z,11.97
2024-03-03T06:09:55.405Z,12.17
2024-03-03T06:12:24.082Z,11.97
2024-03-03T06:14:53.277Z,12.03
2024-03-03T06:17:23.567Z,12.57
2024-03-03T06:19:54.285Z,12.90
2024-03-03T06:22:22.979Z,12.37
2024-03-03T06:24:51.648Z,12.87
2024-03-03T06:27:20.372Z,12.57
2024-03-03T06:29:48.955Z,11.37
2024-03-03T06:32:17.610Z,11.83
2024-03-03T06:34:50.392Z,12.63
2024-03-03T06:37:19.867Z,12.50
2024-03-03T06:39:49.797Z,12.93
2024-03-03T06:42:18.573Z,12.50
2024-03-03T06:44:47.173Z,12.30
2024-03-03T06:47:15.914Z,13.03
2024-03-03T06:49:44.559Z,14.57
2024-03-03T06:52:14.672Z,13.67
2024-03-03T06:54:43.683Z,12.43
2024-03-03T06:57:12.372Z,12.67
2024-03-03T06:59:42.140Z,12.23
2024-03-03T07:02:11.381Z,13.13
2024-03-03T07:04:40.049Z,11.70
2024-03-03T07:07:08.755Z,13.43
2024-03-03T07:09:39.014Z,13.67
2024-03-03T07:12:09.287Z,12.53
2024-03-03T07:14:43.558Z,12.83
2024-03-03T07:17:12.611Z,13.10
2024-03-03T07:19:41.807Z,13.27
2024-03-03T07:22:10.524Z,13.87
2024-03-03T07:24:40.516Z,13.30
2024-03-03T07:27:09.435Z,12.60
2024-03-03T07:29:39.966Z,12.40
2024-03-03T07:32:09.109Z,13.83
2024-03-03T07:34:37.696Z,12.60
2024-03-03T07:37:06.446Z,13.20
2024-03-03T07:39:35.116Z,13.40
2024-03-03T07:42:05.618Z,12.93
2024-03-03T07:44:34.293Z,13.40
2024-03-03T07:47:03.586Z,14.07
2024-03-03T07:49:32.397Z,13.13
2024-03-03T07:52:01.192Z,13.70
2024-03-03T07:54:29.769Z,14.00
2024-03-03T07:56:58.710Z,13.67
2024-03-03T07:59:29.820Z,13.43
2024-03-03T08:01:58.487Z,13.00
2024-03-03T08:04:27.471Z,14.00
2024-03-03T08:06:56.288Z,14.40
2024-03-03T08:09:24.958Z,13.30
2024-03-03T08:11:53.794Z,13.80
2024-03-03T08:14:22.752Z,13.40
2024-03-03T08:16:52.769Z,13.10
2024-03-03T08:19:21.362Z,13.37
2024-03-03T08:21:50.316Z,12.83
2024-03-03T08:24:18.952Z,13.33
2024-03-03T08:26:50.357Z,13.63
2024-03-03T08:29:19.476Z,14.00
2024-03-03T08:31:48.053Z,13.83
2024-03-03T08:34:18.172Z,14.23
2024-03-03T08:36:46.832Z,13.60
2024-03-03T08:39:18.033Z,13.30
2024-03-03T08:41:46.888Z,13.60
2024-03-03T08:44:15.583Z,13.00
2024-03-03T08:46:44.262Z,13.03
2024-03-03T08:49:13.135Z,13.10
2024-03-03T08:51:44.602Z,13.40
2024-03-03T08:54:13.511Z,12.80
2024-03-03T08:56:43.033Z,13.67
2024-03-03T08:59:11.738Z,12.77
2024-03-03T09:01:40.709Z,12.83
2024-03-03T09:04:11.646Z,13.03
2024-03-03T09:06:43.713Z,13.40
2024-03-03T09:09:12.568Z,12.30
2024-03-03T09:11:41.593Z,12.23
2024-03-03T09:14:10.401Z,11.87
2024-03-03T09:16:39.054Z,12.10
2024-03-03T09:19:07.784Z,12.53
2024-03-03T09:21:37.902Z,11.63
2024-03-03T09:24:09.761Z,12.07
2024-03-03T09:26:38.610Z,11.33
2024-03-03T09:29:06.380Z,12.47
2024-03-03T09:31:35.076Z,10.97
2024-03-03T09:34:03.797Z,11.67
2024-03-03T09:36:32.510Z,10.90
2024-03-03T09:39:01.081Z,11.17
2024-03-03T09:41:31.697Z,10.30
2024-03-03T09:44:12.262Z,10.73
2024-03-03T09:46:42.123Z,11.53
2024-03-03T09:49:18.016Z,11.13
2024-03-03T09:51:48.122Z,10.63
2024-03-03T09:54:19.581Z,12.00
2024-03-03T09:56:52.942Z,10.63
2024-03-03T09:59:21.812Z,10.52
2024-03-03T10:01:56.120Z,12.47
2024-03-03T10:04:25.756Z,11.13
2024-03-03T10:06:57.877Z,10.55
2024-03-03T10:09:30.689Z,10.65
2024-03-03T10:12:02.371Z,10.60
2024-03-03T10:14:32.800Z,10.95
2024-03-03T10:17:03.779Z,9.05
2024-03-03T10:19:32.459Z,7.95
2024-03-03T10:22:02.219Z,9.98
2024-03-03T10:24:31.090Z,10.63
2024-03-03T10:27:01.857Z,10.55
2024-03-03T10:29:33.913Z,10.02
2024-03-03T10:32:11.022Z,9.93
2024-03-03T10:34:40.060Z,9.70
2024-03-03T10:37:09.050Z,10.68
2024-03-03T10:39:39.792Z,9.68
2024-03-03T10:42:13.691Z,10.57
2024-03-03T10:44:42.322Z,9.63
2024-03-03T10:47:11.777Z,9.77
2024-03-03T10:49:41.172Z,9.55
2024-03-03T10:52:12.196Z,9.63
2024-03-03T10:54:42.354Z,10.00
2024-03-03T10:57:13.599Z,9.70
2024-03-03T10:59:43.444Z,9.20
2024-03-03T11:02:15.837Z,9.98
2024-03-03T11:04:44.829Z,8.63
2024-03-03T11:07:13.658Z,9.00
2024-03-03T11:09:43.167Z,8.75
2024-03-03T11:12:19.557Z,7.70
2024-03-03T11:14:49.914Z,8.15
2024-03-03T11:17:22.352Z,8.77
2024-03-03T11:19:52.420Z,8.98
2024-03-03T11:22:24.732Z,8.50
2024-03-03T11:24:59.752Z,8.25
2024-03-03T11:27:30.773Z,7.45
2024-03-03T11:30:00.113Z,7.70
2024-03-03T11:32:31.061Z,8.02
2024-03-03T11:35:01.066Z,8.32
2024-03-03T11:37:30.802Z,7.53
2024-03-03T11:40:01.760Z,7.15
2024-03-03T11:42:40.482Z,7.75
2024-03-03T11:45:10.527Z,7.20
2024-03-03T11:47:47.007Z,6.97
2024-03-03T11:50:23.221Z,6.80
2024-03-03T11:52:53.690Z,6.30
2024-03-03T11:55:26.948Z,6.55
2024-03-03T11:58:00.441Z,6.03
2024-03-03T12:00:31.766Z,6.03
2024-03-03T12:03:02.109Z,6.07
2024-03-03T12:05:31.173Z,5.60
2024-03-03T12:07:59.889Z,5.65
2024-03-03T12:10:31.978Z,5.65
2024-03-03T12:13:03.818Z,5.85
2024-03-03T12:15:32.950Z,5.13
2024-03-03T12:18:03.002Z,5.68
2024-03-03T12:20:32.098Z,4.55
2024-03-03T12:23:00.754Z,5.22
2024-03-03T12:25:29.433Z,5.50
2024-03-03T12:28:00.919Z,5.35
2024-03-03T12:30:38.096Z,4.72
2024-03-03T12:33:09.000Z,4.50
2024-03-03T12:35:38.956Z,4.90
2024-03-03T12:38:09.451Z,5.15
2024-03-03T12:40:38.363Z,5.25
2024-03-03T12:43:07.485Z,4.45
2024-03-03T12:45:37.546Z,5.30
2024-03-03T12:48:09.623Z,4.63
2024-03-03T12:50:38.647Z,4.75
2024-03-03T12:53:15.762Z,4.65
2024-03-03T12:55:52.183Z,4.57
2024-03-03T12:58:21.781Z,4.40
2024-03-03T13:00:52.075Z,4.45
2024-03-03T13:03:21.066Z,4.05
2024-03-03T13:05:50.212Z,4.10
2024-03-03T13:08:19.175Z,4.15
2024-03-03T13:10:48.400Z,4.10
2024-03-03T13:13:18.554Z,4.40
2024-03-03T13:15:53.847Z,4.32
2024-03-03T13:18:24.268Z,4.40
2024-03-03T13:20:52.905Z,4.47
2024-03-03T13:23:22.374Z,4.90
2024-03-03T13:25:53.639Z,4.68
2024-03-03T13:28:22.298Z,5.15
2024-03-03T13:31:01.354Z,4.93
2024-03-03T13:33:34.775Z,4.50
2024-03-03T13:36:05.498Z,4.07
2024-03-03T13:38:34.476Z,4.40
2024-03-03T13:41:03.848Z,4.38
2024-03-03T13:43:33.414Z,4.22
2024-03-03T13:46:02.467Z,3.90
2024-03-03T13:48:33.931Z,4.45
2024-03-03T13:51:06.222Z,4.18
2024-03-03T13:53:36.310Z,4.35
2024-03-03T13:56:05.601Z,4.25
2024-03-03T13:58:34.338Z,4.25
2024-03-03T14:01:04.246Z,4.40
2024-03-03T14:03:35.012Z,4.57
2024-03-03T14:06:04.093Z,4.68
2024-03-03T14:08:32.911Z,4.78
2024-03-03T14:11:01.925Z,4.90
2024-03-03T14:13:30.699Z,4.78
2024-03-03T14:15:59.554Z,4.93
2024-03-03T14:18:28.130Z,4.57
2024-03-03T14:20:58.076Z,4.55
2024-03-03T14:23:26.967Z,4.72
2024-03-03T14:25:56.212Z,4.63
2024-03-03T14:28:25.142Z,4.85
2024-03-03T14:30:53.733Z,4.63
2024-03-03T14:33:22.382Z,4.40
2024-03-03T14:35:51.361Z,4.47
2024-03-03T14:38:21.352Z,4.32
2024-03-03T14:40:49.918Z,4.30
2024-03-03T14:43:19.270Z,3.95
2024-03-03T14:45:48.682Z,4.40
2024-03-03T14:48:17.330Z,4.55
2024-03-03T14:50:46.071Z,4.20
2024-03-03T14:53:14.709Z,4.30
2024-03-03T14:55:44.760Z,4.25
2024-03-03T14:58:13.591Z,4.10
2024-03-03T15:00:42.165Z,4.28
2024-03-03T15:03:11.355Z,3.85
2024-03-03T15:05:39.962Z,4.15
2024-03-03T15:08:08.861Z,4.00
2024-03-03T15:10:38.003Z,4.00
2024-03-03T15:13:08.097Z,3.90
2024-03-03T15:15:38.375Z,4.57
2024-03-03T15:18:07.316Z,4.00
2024-03-03T15:20:38.242Z,3.85
2024-03-03T15:23:07.226Z,4.15
2024-03-03T15:25:35.892Z,4.50
2024-03-03T15:28:05.149Z,4.50
2024-03-03T15:30:35.103Z,3.92
2024-03-03T15:33:05.096Z,4.22
2024-03-03T15:35:34.005Z,4.35
2024-03-03T15:38:03.577Z,3.85
2024-03-03T15:40:32.227Z,4.30
2024-03-03T15:43:00.982Z,4.53
2024-03-03T15:45:29.586Z,4.45
2024-03-03T15:48:00.353Z,4.18
2024-03-03T15:50:29.004Z,4.40
2024-03-03T15:52:57.545Z,4.78
2024-03-03T15:55:26.249Z,4.63
2024-03-03T15:57:54.870Z,4.15
2024-03-03T16:00:23.736Z,4.32
2024-03-03T16:02:52.402Z,4.35
2024-03-03T16:05:23.056Z,4.47
2024-03-03T16:07:52.009Z,4.60
2024-03-03T16:10:20.666Z,5.00
2024-03-03T16:12:49.428Z,4.50
2024-03-03T16:15:18.748Z,4.82
2024-03-03T16:17:48.047Z,5.15
2024-03-03T16:20:18.177Z,4.68
2024-03-03T16:22:48.178Z,4.97
2024-03-03T16:25:17.341Z,5.43
2024-03-03T16:27:46.107Z,5.30
2024-03-03T16:30:15.044Z,5.15
2024-03-03T16:32:43.648Z,5.13
2024-03-03T16:35:12.212Z,5.28
2024-03-03T16:37:41.661Z,5.95
2024-03-03T16:40:12.461Z,5.68
2024-03-03T16:42:55.997Z,5.80
2024-03-03T16:45:25.599Z,5.90
2024-03-03T16:47:57.591Z,5.85
2024-03-03T16:50:26.242Z,5.63
2024-03-03T16:52:55.804Z,5.65
2024-03-03T16:55:26.178Z,5.35
2024-03-03T16:57:55.932Z,5.22
2024-03-03T17:00:24.861Z,5.82
2024-03-03T17:02:53.775Z,5.88
2024-03-03T17:05:22.503Z,4.97
2024-03-03T17:07:52.130Z,6.05
2024-03-03T17:10:20.791Z,5.25
2024-03-03T17:12:52.206Z,6.00
2024-03-03T17:15:20.999Z,5.68
2024-03-03T17:17:49.660Z,6.30
2024-03-03T17:20:18.604Z,6.30
2024-03-03T17:22:47.187Z,6.47
2024-03-03T17:25:15.926Z,6.70
2024-03-03T17:27:45.642Z,7.23
2024-03-03T17:30:17.786Z,6.70
2024-03-03T17:32:47.669Z,6.50
2024-03-03T17:35:16.503Z,6.90
2024-03-03T17:37:53.924Z,6.38
2024-03-03T17:40:22.713Z,7.03
2024-03-03T17:42:51.573Z,7.10
2024-03-03T17:45:21.620Z,6.53
2024-03-03T17:47:50.318Z,7.13
2024-03-03T17:50:18.985Z,7.13
2024-03-03T17:52:47.863Z,7.30
2024-03-03T17:55:16.773Z,7.03
2024-03-03T17:57:45.696Z,7.17
2024-03-03T18:00:15.333Z,7.47
2024-03-03T18:02:47.243Z,6.97
2024-03-03T18:05:15.936Z,7.20
2024-03-03T18:07:44.958Z,7.82
2024-03-03T18:10:13.731Z,7.68
2024-03-03T18:12:42.389Z,7.67
2024-03-03T18:15:12.291Z,6.53
2024-03-03T18:17:41.998Z,6.60
2024-03-03T18:20:13.199Z,6.90
2024-03-03T18:22:41.937Z,6.60
2024-03-03T18:25:11.316Z,7.27
2024-03-03T18:27:39.962Z,6.63
2024-03-03T18:30:10.544Z,6.47
2024-03-03T18:32:39.226Z,7.03
2024-03-03T18:35:09.312Z,6.20
2024-03-03T18:37:39.657Z,6.63
2024-03-03T18:40:11.256Z,7.07
2024-03-03T18:42:39.908Z,6.93
2024-03-03T18:45:09.557Z,6.37
2024-03-03T18:47:38.746Z,6.77
2024-03-03T18:50:09.181Z,6.93
2024-03-03T18:52:39.280Z,7.00
2024-03-03T18:55:09.845Z,7.40
2024-03-03T18:57:39.061Z,8.17
2024-03-03T19:00:11.904Z,8.00
2024-03-03T19:02:41.433Z,9.97
2024-03-03T19:05:10.942Z,11.43
2024-03-03T19:07:41.489Z,10.10
2024-03-03T19:10:11.548Z,9.17
2024-03-03T19:12:40.319Z,8.17
2024-03-03T19:15:10.015Z,7.30
2024-03-03T19:17:40.372Z,7.20
2024-03-03T19:20:11.106Z,7.13
2024-03-03T19:22:41.456Z,7.07
2024-03-03T19:25:11.252Z,6.70
2024-03-03T19:27:40.217Z,7.23
2024-03-03T19:30:11.494Z,7.67
2024-03-03T19:32:40.941Z,7.33
2024-03-03T19:35:11.711Z,7.13
2024-03-03T19:37:41.776Z,7.60
2024-03-03T19:40:13.261Z,7.67
2024-03-03T19:42:42.176Z,8.70
2024-03-03T19:45:11.693Z,7.90
2024-03-03T19:47:41.974Z,8.13
2024-03-03T19:50:11.637Z,7.17
2024-03-03T19:52:41.765Z,7.60
2024-03-03T19:55:10.835Z,7.20
2024-03-03T19:57:39.514Z,7.23
2024-03-03T20:00:15.605Z,7.10
2024-03-03T20:02:45.127Z,7.03
2024-03-03T20:05:13.907Z,8.10
2024-03-03T20:07:43.987Z,7.03
2024-03-03T20:10:12.889Z,6.43
2024-03-03T20:12:41.552Z,7.17
2024-03-03T20:15:12.443Z,7.00
2024-03-03T20:17:41.270Z,6.90
2024-03-03T20:20:12.082Z,7.40
2024-03-03T20:22:40.924Z,7.40
2024-03-03T20:25:11.620Z,7.27
2024-03-03T20:27:40.634Z,7.43
2024-03-03T20:30:10.821Z,7.47
2024-03-03T20:32:39.801Z,6.63
2024-03-03T20:35:09.090Z,7.10
2024-03-03T20:37:38.161Z,6.63
2024-03-03T20:40:13.925Z,7.13
2024-03-03T20:42:43.542Z,8.00
2024-03-03T20:45:12.863Z,7.47
2024-03-03T20:47:42.789Z,7.37
2024-03-03T20:50:13.171Z,7.60
2024-03-03T20:52:42.354Z,6.70
2024-03-03T20:55:14.384Z,7.27
2024-03-03T20:57:43.443Z,6.33
2024-03-03T21:00:13.449Z,6.97
2024-03-03T21:02:42.512Z,6.93
2024-03-03T21:05:12.100Z,7.27
2024-03-03T21:07:41.007Z,6.73
2024-03-03T21:10:11.822Z,7.60
2024-03-03T21:12:40.717Z,6.87
2024-03-03T21:15:10.368Z,7.37
2024-03-03T21:17:39.067Z,6.30
2024-03-03T21:20:12.502Z,6.40
2024-03-03T21:22:42.503Z,6.90
2024-03-03T21:25:14.968Z,6.67
2024-03-03T21:27:43.676Z,7.10
2024-03-03T21:30:13.352Z,6.73
2024-03-03T21:32:42.262Z,6.83
2024-03-03T21:35:11.305Z,6.97
2024-03-03T21:37:39.950Z,6.97
2024-03-03T21:40:12.584Z,7.47
2024-03-03T21:42:42.593Z,7.97
2024-03-03T21:45:13.472Z,8.33
2024-03-03T21:47:42.216Z,8.00
2024-03-03T21:50:13.076Z,8.60
2024-03-03T21:52:42.038Z,8.33
2024-03-03T21:55:11.155Z,9.27
2024-03-03T21:57:41.509Z,9.83
2024-03-03T22:00:12.181Z,9.23
2024-03-03T22:02:43.770Z,10.40
2024-03-03T22:05:12.989Z,8.40
2024-03-03T22:07:41.689Z,9.30
2024-03-03T22:10:11.728Z,8.87
2024-03-03T22:12:41.945Z,9.33
2024-03-03T22:15:12.571Z,7.90
2024-03-03T22:17:41.242Z,7.40
2024-03-03T22:20:11.780Z,7.07
2024-03-03T22:22:41.372Z,7.43
2024-03-03T22:25:11.047Z,7.30
2024-03-03T22:27:41.447Z,7.70
2024-03-03T22:30:11.790Z,6.90
2024-03-03T22:32:40.560Z,7.97
2024-03-03T22:35:10.190Z,8.53
2024-03-03T22:37:38.958Z,8.87
2024-03-03T22:40:11.746Z,8.90
2024-03-03T22:42:41.944Z,8.33
2024-03-03T22:45:10.955Z,8.60
2024-03-03T22:47:39.768Z,7.97
2024-03-03T22:50:10.028Z,7.93
2024-03-03T22:52:38.721Z,7.53
2024-03-03T22:55:09.221Z,8.10
2024-03-03T22:57:38.175Z,8.67
2024-03-03T23:00:14.068Z,8.60
2024-03-03T23:02:42.793Z,8.07
2024-03-03T23:05:11.440Z,7.97
2024-03-03T23:07:40.157Z,8.30
2024-03-03T23:10:10.015Z,7.90
2024-03-03T23:12:39.125Z,7.87
2024-03-03T23:15:10.626Z,7.73
2024-03-03T23:17:39.675Z,8.00
2024-03-03T23:20:10.257Z,7.83
2024-03-03T23:22:39.236Z,8.30
2024-03-03T23:25:08.747Z,7.77
2024-03-03T23:27:37.387Z,8.10
2024-03-03T23:30:09.432Z,7.60
2024-03-03T23:32:38.890Z,7.80
2024-03-03T23:35:08.008Z,7.97
2024-03-03T23:37:37.381Z,7.70
2024-03-03T23:40:07.598Z,8.50
2024-03-03T23:42:36.954Z,9.27
2024-03-03T23:45:08.699Z,9.70
2024-03-03T23:47:37.429Z,9.37
2024-03-03T23:50:07.256Z,9.70
2024-03-03T23:52:36.795Z,9.17
2024-03-03T23:55:06.614Z,8.80
2024-03-03T23:57:35.309Z,8.97
